This is the latest recevied weather packets stored in our database for station/object WB4ZUT. If no packets are shown the sender has not sent any weather packets the latest 10 day(s).
| Time | Temp. | Humidity | Pressure | Rain* | Wind** | Luminosity | Snow |
|---|---|---|---|---|---|---|---|
| 1778159671 | 12.78° C | 65% | 1017.5 hPa | 0 mm | - | 253 W/m² | - |
| 1778159368 | 12.22° C | 64% | 1017.1 hPa | 0 mm | - | 233 W/m² | - |
| 1778159065 | 12.22° C | 67% | 1017.3 hPa | 0 mm | - | 215 W/m² | - |
| 1778158764 | 11.67° C | 68% | 1017.4 hPa | 0 mm | - | 200 W/m² | - |
| 1778158461 | 11.67° C | 68% | 1017.2 hPa | 0 mm | - | 182 W/m² | - |
| 1778158159 | 11.67° C | 68% | 1017 hPa | 0 mm | - | 166 W/m² | - |
| 1778157854 | 11.11° C | 67% | 1017.3 hPa | 0 mm | - | 145 W/m² | - |
| 1778157553 | 11.11° C | 66% | 1017.2 hPa | 0 mm | - | 142 W/m² | - |
| 1778157250 | 11.11° C | 68% | 1017.2 hPa | 0 mm | - | 122 W/m² | - |
| 1778156946 | 10.56° C | 71% | 1017.2 hPa | 0 mm | - | 88 W/m² | - |
| 1778156642 | 9.44° C | 80% | 1017.2 hPa | 0 mm | - | 66 W/m² | - |
| 1778156338 | 8.33° C | 87% | 1017.1 hPa | 0 mm | - | 60 W/m² | - |
| 1778156033 | 7.78° C | 91% | 1016.8 hPa | 0 mm | - | 55 W/m² | - |
| 1778155730 | 7.22° C | 92% | 1017 hPa | 0 mm | - | 48 W/m² | - |
| 1778155427 | 6.67° C | 93% | 1017 hPa | 0 mm | - | 46 W/m² | - |
| 1778155122 | 6.11° C | 94% | 1017 hPa | 0 mm | - | 38 W/m² | - |
| 1778154818 | 5.56° C | 94% | 1016.9 hPa | 0 mm | - | 28 W/m² | - |
| 1778154514 | 5.56° C | 93% | 1016.9 hPa | 0 mm | - | 26 W/m² | - |
| 1778154212 | 5° C | 93% | 1016.9 hPa | 0 mm | - | 24 W/m² | - |
| 1778153909 | 5° C | 93% | 1016.8 hPa | 0 mm | - | 22 W/m² | - |
| 1778153607 | 5° C | 93% | 1016.7 hPa | 0 mm | - | 20 W/m² | - |
| 1778153304 | 5° C | 93% | 1016.7 hPa | 0 mm | - | 18 W/m² | - |
| 1778153000 | 5° C | 93% | 1016.7 hPa | 0 mm | - | 16 W/m² | - |
| 1778152699 | 5° C | 93% | 1016.6 hPa | 0 mm | - | 14 W/m² | - |
| 1778152395 | 5° C | 92% | 1016.8 hPa | 0 mm | - | 12 W/m² | - |
* Rain latest hour (hover to see other rain measurements)
** Current wind speed in m/s (hover to see current wind gust speed)